Time,TemperatureF,DewpointF,PressureIn,WindDirection,WindDirectionDegrees,WindSpeedMPH,WindSpeedGustMPH,Humidity,HourlyPrecipIn,Conditions,Clouds,dailyrainin,SoftwareType,DateUTC
2013-03-31 00:03:00,42.0,-99.9,29.90,SSE,151,0.0,0.0,78,0.00,,,0.00,,2013-03-31 04:03:00,
2013-03-31 00:13:00,42.0,36.0,29.90,SSE,151,0.0,0.0,78,0.00,,,0.00,,2013-03-31 04:13:00,
2013-03-31 00:23:00,41.0,37.0,29.90,SSE,150,0.0,0.0,84,0.00,,,0.00,,2013-03-31 04:23:00,
2013-03-31 00:33:00,41.0,36.0,29.89,SSE,151,0.0,0.0,82,0.00,,,0.00,,2013-03-31 04:33:00,
2013-03-31 00:42:00,41.0,36.0,29.89,SSE,151,0.0,0.0,82,0.00,,,0.00,,2013-03-31 04:42:00,
2013-03-31 00:53:00,40.0,35.0,29.88,SSE,151,0.0,0.0,83,0.00,,,0.00,,2013-03-31 04:53:00,
2013-03-31 01:02:00,40.0,35.0,29.88,SSE,151,0.0,0.0,83,0.00,,,0.00,,2013-03-31 05:02:00,
2013-03-31 01:12:00,40.0,35.0,29.88,SSE,151,0.0,0.0,83,0.00,,,0.00,,2013-03-31 05:12:00,
2013-03-31 01:22:00,40.0,35.0,29.88,SSE,150,0.0,0.0,83,0.00,,,0.00,,2013-03-31 05:22:00,
2013-03-31 01:32:00,40.0,35.0,29.87,SSE,150,0.0,0.0,83,0.00,,,0.00,,2013-03-31 05:32:00,
2013-03-31 01:42:00,40.0,35.0,29.87,SSE,150,0.0,0.0,83,0.00,,,0.00,,2013-03-31 05:42:00,
2013-03-31 01:53:00,40.0,35.0,29.86,SSE,151,0.0,0.0,83,0.00,,,0.00,,2013-03-31 05:53:00,
2013-03-31 02:02:00,41.0,36.0,29.85,SSE,151,0.0,0.0,83,0.00,,,0.00,,2013-03-31 06:02:00,
2013-03-31 02:12:00,41.0,36.0,29.85,SSE,151,0.0,0.0,83,0.00,,,0.00,,2013-03-31 06:12:00,
2013-03-31 02:22:00,41.0,36.0,29.85,SSE,151,0.0,0.0,83,0.00,,,0.00,,2013-03-31 06:22:00,
2013-03-31 02:32:00,41.0,36.0,29.85,SSE,150,0.0,0.0,82,0.00,,,0.00,,2013-03-31 06:32:00,
2013-03-31 02:42:00,41.0,36.0,29.85,SSE,150,0.0,0.0,82,0.00,,,0.00,,2013-03-31 06:42:00,
2013-03-31 02:52:00,41.0,36.0,29.84,SSE,150,0.0,0.0,82,0.00,,,0.00,,2013-03-31 06:52:00,
2013-03-31 03:02:00,42.0,37.0,29.83,SSE,150,0.0,0.0,82,0.00,,,0.00,,2013-03-31 07:02:00,
2013-03-31 03:12:00,42.0,37.0,29.83,SSE,150,0.0,0.0,82,0.00,,,0.00,,2013-03-31 07:12:00,
2013-03-31 03:22:00,42.0,37.0,29.83,SSE,151,0.0,0.0,82,0.00,,,0.00,,2013-03-31 07:22:00,
2013-03-31 03:33:00,42.0,37.0,29.82,SSE,151,0.0,0.0,83,0.00,,,0.00,,2013-03-31 07:33:00,
2013-03-31 03:43:00,42.0,37.0,29.82,SSE,151,0.0,0.0,83,0.00,,,0.00,,2013-03-31 07:43:00,
2013-03-31 03:53:00,42.0,37.0,29.81,SSE,155,4.0,5.0,83,0.00,,,0.00,,2013-03-31 07:53:00,
2013-03-31 04:02:00,41.0,37.0,29.80,SSE,155,4.0,5.0,84,0.00,,,0.00,,2013-03-31 08:02:00,
2013-03-31 04:12:00,41.0,37.0,29.80,SSE,155,4.0,5.0,84,0.00,,,0.00,,2013-03-31 08:12:00,
2013-03-31 04:22:00,41.0,37.0,29.80,SSE,155,4.0,6.0,84,0.00,,,0.00,,2013-03-31 08:22:00,
2013-03-31 04:32:00,41.0,37.0,29.80,SSE,155,4.0,4.0,84,0.00,,,0.00,,2013-03-31 08:32:00,
2013-03-31 04:42:00,41.0,37.0,29.80,SSE,155,4.0,4.0,84,0.00,,,0.00,,2013-03-31 08:42:00,
2013-03-31 04:52:00,41.0,38.0,29.80,SSE,158,4.0,6.0,89,0.00,,,0.00,,2013-03-31 08:52:00,
2013-03-31 05:02:00,41.0,37.0,29.79,SSE,159,5.0,6.0,85,0.00,,,0.00,,2013-03-31 09:02:00,
2013-03-31 05:12:00,41.0,37.0,29.79,SSE,159,5.0,6.0,85,0.00,,,0.00,,2013-03-31 09:12:00,
2013-03-31 05:22:00,41.0,37.0,29.78,SSE,165,4.0,6.0,85,0.00,,,0.00,,2013-03-31 09:22:00,
2013-03-31 05:33:00,42.0,38.0,29.78,SW,219,6.0,9.0,85,0.00,,,0.00,,2013-03-31 09:33:00,
2013-03-31 05:42:00,42.0,38.0,29.78,SW,219,6.0,9.0,85,0.00,,,0.00,,2013-03-31 09:42:00,
2013-03-31 05:53:00,44.0,39.0,29.78,WSW,241,7.0,10.0,83,0.00,,,0.00,,2013-03-31 09:53:00,
2013-03-31 06:03:00,45.0,40.0,29.77,WSW,248,10.0,14.0,81,0.00,,,0.00,,2013-03-31 10:03:00,
2013-03-31 06:13:00,45.0,40.0,29.77,WSW,248,10.0,14.0,81,0.00,,,0.00,,2013-03-31 10:13:00,
2013-03-31 06:24:00,46.0,40.0,29.77,WSW,251,11.0,15.0,80,0.00,,,0.00,,2013-03-31 10:24:00,
2013-03-31 06:33:00,46.0,40.0,29.77,WSW,241,11.0,13.0,80,0.00,,,0.00,,2013-03-31 10:33:00,
2013-03-31 06:42:00,46.0,40.0,29.77,WSW,241,11.0,13.0,80,0.00,,,0.00,,2013-03-31 10:42:00,
2013-03-31 06:53:00,46.0,41.0,29.77,WSW,246,7.0,14.0,81,0.00,,,0.00,,2013-03-31 10:53:00,
2013-03-31 07:02:00,46.0,41.0,29.77,WSW,248,8.0,12.0,82,0.00,,,0.00,,2013-03-31 11:02:00,
2013-03-31 07:12:00,46.0,41.0,29.77,WSW,248,8.0,12.0,82,0.00,,,0.00,,2013-03-31 11:12:00,
2013-03-31 07:23:00,46.0,41.0,29.77,WSW,251,6.0,11.0,83,0.00,,,0.00,,2013-03-31 11:23:00,
2013-03-31 07:32:00,45.0,40.0,29.76,WSW,248,6.0,11.0,83,0.00,,,0.00,,2013-03-31 11:32:00,
2013-03-31 07:42:00,45.0,40.0,29.76,WSW,248,6.0,11.0,83,0.00,,,0.00,,2013-03-31 11:42:00,
2013-03-31 07:53:00,45.0,40.0,29.76,WSW,256,7.0,11.0,84,0.00,,,0.00,,2013-03-31 11:53:00,
2013-03-31 08:03:00,45.0,41.0,29.76,WSW,252,8.0,11.0,85,0.00,,,0.00,,2013-03-31 12:03:00,
2013-03-31 08:12:00,45.0,41.0,29.76,WSW,252,8.0,11.0,85,0.00,,,0.00,,2013-03-31 12:12:00,
2013-03-31 08:22:00,45.0,41.0,29.77,WSW,252,10.0,12.0,86,0.00,,,0.00,,2013-03-31 12:22:00,
2013-03-31 08:33:00,45.0,42.0,29.77,WSW,257,7.0,11.0,88,0.00,,,0.00,,2013-03-31 12:33:00,
2013-03-31 08:42:00,45.0,42.0,29.77,WSW,257,7.0,11.0,88,0.00,,,0.00,,2013-03-31 12:42:00,
2013-03-31 08:53:00,44.0,41.0,29.77,West,259,9.0,13.0,89,0.00,,,0.00,,2013-03-31 12:53:00,
2013-03-31 09:02:00,44.0,41.0,29.76,WSW,252,11.0,13.0,90,0.00,,,0.00,,2013-03-31 13:02:00,
2013-03-31 09:12:00,44.0,41.0,29.76,WSW,252,11.0,13.0,90,0.00,,,0.00,,2013-03-31 13:12:00,
2013-03-31 09:22:00,44.0,42.0,29.76,WSW,250,4.0,11.0,91,0.00,,,0.00,,2013-03-31 13:22:00,
2013-03-31 09:32:00,44.0,42.0,29.76,WSW,254,7.0,12.0,92,0.00,,,0.00,,2013-03-31 13:32:00,
2013-03-31 09:42:00,44.0,42.0,29.76,WSW,254,7.0,12.0,92,0.00,,,0.00,,2013-03-31 13:42:00,
2013-03-31 09:53:00,44.0,42.0,29.76,WSW,258,9.0,12.0,93,0.00,,,0.00,,2013-03-31 13:53:00,
2013-03-31 10:02:00,44.0,42.0,29.75,West,265,7.0,12.0,94,0.00,,,0.00,,2013-03-31 14:02:00,
2013-03-31 10:12:00,44.0,42.0,29.75,West,265,7.0,12.0,94,0.00,,,0.00,,2013-03-31 14:12:00,
2013-03-31 10:22:00,44.0,42.0,29.75,WSW,254,11.0,14.0,94,0.00,,,0.00,,2013-03-31 14:22:00,
2013-03-31 10:33:00,44.0,42.0,29.75,WSW,252,8.0,15.0,94,0.00,,,0.00,,2013-03-31 14:33:00,
2013-03-31 10:43:00,44.0,42.0,29.75,WSW,252,8.0,15.0,94,0.00,,,0.00,,2013-03-31 14:43:00,
2013-03-31 10:52:00,44.0,43.0,29.75,West,259,8.0,14.0,95,0.00,,,0.00,,2013-03-31 14:52:00,
2013-03-31 11:03:00,44.0,43.0,29.76,WSW,257,12.0,15.0,95,0.00,,,0.00,,2013-03-31 15:03:00,
2013-03-31 11:13:00,44.0,43.0,29.76,WSW,257,12.0,15.0,95,0.00,,,0.00,,2013-03-31 15:13:00,
2013-03-31 11:22:00,44.0,43.0,29.76,WSW,257,10.0,15.0,95,0.00,,,0.00,,2013-03-31 15:22:00,
2013-03-31 11:33:00,45.0,44.0,29.76,West,263,9.0,14.0,95,0.00,,,0.00,,2013-03-31 15:33:00,
2013-03-31 11:43:00,45.0,44.0,29.76,West,263,9.0,14.0,95,0.00,,,0.00,,2013-03-31 15:43:00,
2013-03-31 11:54:00,45.0,44.0,29.76,WSW,257,11.0,14.0,95,0.00,,,0.00,,2013-03-31 15:54:00,
2013-03-31 12:03:00,45.0,44.0,29.76,WSW,257,11.0,14.0,95,0.00,,,0.00,,2013-03-31 16:03:00,
2013-03-31 12:13:00,45.0,44.0,29.76,WSW,257,11.0,14.0,95,0.00,,,0.00,,2013-03-31 16:13:00,
2013-03-31 12:23:00,48.0,45.0,29.76,West,272,16.0,18.0,88,0.00,,,0.00,,2013-03-31 16:23:00,
2013-03-31 12:33:00,50.0,44.0,29.75,West,278,14.0,20.0,79,0.00,,,0.00,,2013-03-31 16:33:00,
2013-03-31 12:43:00,50.0,44.0,29.75,West,278,14.0,20.0,79,0.00,,,0.00,,2013-03-31 16:43:00,
2013-03-31 12:53:00,51.0,44.0,29.75,West,268,13.0,17.0,76,0.00,,,0.00,,2013-03-31 16:53:00,
2013-03-31 13:03:00,52.0,44.0,29.75,West,275,14.0,18.0,74,0.00,,,0.00,,2013-03-31 17:03:00,
2013-03-31 13:12:00,52.0,44.0,29.75,West,275,14.0,18.0,74,0.00,,,0.00,,2013-03-31 17:12:00,
2013-03-31 13:23:00,53.0,43.0,29.75,WSW,252,14.0,19.0,70,0.00,,,0.00,,2013-03-31 17:23:00,
2013-03-31 13:32:00,54.0,42.0,29.74,WNW,290,15.0,18.0,64,0.00,,,0.00,,2013-03-31 17:32:00,
2013-03-31 13:43:00,54.0,42.0,29.74,WNW,290,15.0,18.0,64,0.00,,,0.00,,2013-03-31 17:43:00,
2013-03-31 13:52:00,54.0,42.0,29.74,West,281,12.0,20.0,64,0.00,,,0.00,,2013-03-31 17:52:00,
2013-03-31 14:03:00,55.0,42.0,29.73,West,261,14.0,22.0,62,0.00,,,0.00,,2013-03-31 18:03:00,
2013-03-31 14:13:00,55.0,42.0,29.73,West,261,14.0,22.0,62,0.00,,,0.00,,2013-03-31 18:13:00,
2013-03-31 14:22:00,55.0,41.0,29.73,NW,304,13.0,21.0,59,0.00,,,0.00,,2013-03-31 18:22:00,
2013-03-31 14:32:00,56.0,42.0,29.72,West,266,13.0,23.0,59,0.00,,,0.00,,2013-03-31 18:32:00,
2013-03-31 14:42:00,56.0,42.0,29.72,West,266,13.0,23.0,59,0.00,,,0.00,,2013-03-31 18:42:00,
2013-03-31 14:53:00,56.0,41.0,29.72,West,263,16.0,21.0,57,0.00,,,0.00,,2013-03-31 18:53:00,
2013-03-31 15:03:00,57.0,43.0,29.71,WSW,244,15.0,21.0,59,0.00,,,0.00,,2013-03-31 19:03:00,
2013-03-31 15:12:00,57.0,43.0,29.71,WSW,244,15.0,21.0,59,0.00,,,0.00,,2013-03-31 19:12:00,
2013-03-31 15:22:00,57.0,42.0,29.71,West,270,10.0,22.0,57,0.00,,,0.00,,2013-03-31 19:22:00,
2013-03-31 15:33:00,57.0,42.0,29.70,WSW,257,14.0,21.0,58,0.00,,,0.00,,2013-03-31 19:33:00,
2013-03-31 15:43:00,57.0,42.0,29.70,WSW,257,14.0,21.0,58,0.00,,,0.00,,2013-03-31 19:43:00,
2013-03-31 15:54:00,58.0,42.0,29.70,WNW,284,17.0,19.0,56,0.00,,,0.00,,2013-03-31 19:54:00,
2013-03-31 16:03:00,58.0,42.0,29.70,West,277,11.0,21.0,55,0.00,,,0.00,,2013-03-31 20:03:00,
2013-03-31 16:12:00,58.0,42.0,29.70,West,277,11.0,21.0,55,0.00,,,0.00,,2013-03-31 20:12:00,
2013-03-31 16:23:00,59.0,41.0,29.70,West,269,14.0,21.0,51,0.00,,,0.00,,2013-03-31 20:23:00,
2013-03-31 16:34:00,58.0,41.0,29.69,West,275,12.0,24.0,53,0.00,,,0.00,,2013-03-31 20:34:00,
2013-03-31 16:43:00,58.0,41.0,29.69,West,275,12.0,24.0,53,0.00,,,0.00,,2013-03-31 20:43:00,
2013-03-31 16:53:00,59.0,40.0,29.70,West,264,19.0,26.0,50,0.00,,,0.00,,2013-03-31 20:53:00,
2013-03-31 17:03:00,58.0,39.0,29.69,West,271,19.0,24.0,49,0.00,,,0.00,,2013-03-31 21:03:00,
2013-03-31 17:13:00,58.0,39.0,29.69,West,271,19.0,24.0,49,0.00,,,0.00,,2013-03-31 21:13:00,
2013-03-31 17:22:00,58.0,38.0,29.69,West,267,21.0,28.0,47,0.00,,,0.00,,2013-03-31 21:22:00,
2013-03-31 17:34:00,58.0,41.0,29.69,West,263,15.0,24.0,53,0.00,,,0.00,,2013-03-31 21:34:00,
2013-03-31 17:43:00,58.0,41.0,29.69,West,263,15.0,24.0,53,0.00,,,0.00,,2013-03-31 21:43:00,
2013-03-31 17:54:00,58.0,40.0,29.68,WSW,257,18.0,25.0,52,0.00,,,0.00,,2013-03-31 21:54:00,
2013-03-31 18:04:00,57.0,40.0,29.68,West,259,14.0,21.0,53,0.00,,,0.00,,2013-03-31 22:04:00,
2013-03-31 18:13:00,57.0,40.0,29.68,West,259,14.0,21.0,53,0.00,,,0.00,,2013-03-31 22:13:00,
2013-03-31 18:23:00,56.0,40.0,29.69,West,260,17.0,29.0,55,0.00,,,0.00,,2013-03-31 22:23:00,
2013-03-31 18:33:00,55.0,42.0,29.68,West,265,9.0,16.0,62,0.00,,,0.00,,2013-03-31 22:33:00,
2013-03-31 18:43:00,55.0,42.0,29.68,West,265,9.0,16.0,62,0.00,,,0.00,,2013-03-31 22:43:00,
2013-03-31 18:53:00,55.0,42.0,29.68,West,275,6.0,14.0,62,0.00,,,0.00,,2013-03-31 22:53:00,
2013-03-31 19:03:00,55.0,41.0,29.68,West,269,13.0,18.0,60,0.00,,,0.00,,2013-03-31 23:03:00,
2013-03-31 19:13:00,55.0,41.0,29.68,West,269,13.0,18.0,60,0.00,,,0.00,,2013-03-31 23:13:00,
2013-03-31 19:22:00,56.0,42.0,29.68,WSW,242,22.0,28.0,60,0.00,,,0.00,,2013-03-31 23:22:00,
2013-03-31 19:32:00,55.0,42.0,29.68,WSW,257,18.0,24.0,61,0.00,,,0.00,,2013-03-31 23:32:00,
2013-03-31 19:43:00,55.0,42.0,29.68,WSW,257,18.0,24.0,61,0.00,,,0.00,,2013-03-31 23:43:00,
2013-03-31 19:53:00,54.0,41.0,29.69,West,269,15.0,22.0,61,0.00,,,0.00,,2013-03-31 23:53:00,
2013-03-31 20:02:00,54.0,41.0,29.69,WSW,257,10.0,19.0,61,0.00,,,0.00,,2013-04-01 00:02:00,
2013-03-31 20:13:00,54.0,41.0,29.69,WSW,257,10.0,19.0,61,0.00,,,0.00,,2013-04-01 00:13:00,
2013-03-31 20:22:00,54.0,42.0,29.70,West,261,12.0,16.0,63,0.00,,,0.00,,2013-04-01 00:22:00,
2013-03-31 20:32:00,53.0,42.0,29.70,West,259,8.0,20.0,66,0.00,,,0.00,,2013-04-01 00:32:00,
2013-03-31 20:43:00,53.0,42.0,29.70,West,259,8.0,20.0,66,0.00,,,0.00,,2013-04-01 00:43:00,
2013-03-31 20:53:00,52.0,42.0,29.70,WSW,249,12.0,14.0,68,0.00,,,0.00,,2013-04-01 00:53:00,
2013-03-31 21:03:00,52.0,43.0,29.71,WSW,254,8.0,15.0,70,0.00,,,0.00,,2013-04-01 01:03:00,
2013-03-31 21:12:00,52.0,43.0,29.71,WSW,254,8.0,15.0,70,0.00,,,0.00,,2013-04-01 01:12:00,
2013-03-31 21:23:00,51.0,42.0,29.72,West,259,8.0,13.0,72,0.00,,,0.00,,2013-04-01 01:23:00,
2013-03-31 21:32:00,51.0,42.0,29.72,West,267,12.0,17.0,72,0.00,,,0.00,,2013-04-01 01:32:00,
2013-03-31 21:42:00,51.0,42.0,29.72,West,267,12.0,17.0,72,0.00,,,0.00,,2013-04-01 01:42:00,
2013-03-31 21:53:00,50.0,39.0,29.72,WNW,283,13.0,18.0,66,0.00,,,0.00,,2013-04-01 01:53:00,
2013-03-31 22:03:00,50.0,37.0,29.73,WNW,298,13.0,20.0,61,0.00,,,0.00,,2013-04-01 02:03:00,
2013-03-31 22:13:00,50.0,37.0,29.73,WNW,298,13.0,20.0,61,0.00,,,0.00,,2013-04-01 02:13:00,
2013-03-31 22:23:00,50.0,36.0,29.73,WNW,291,16.0,28.0,58,0.00,,,0.00,,2013-04-01 02:23:00,
2013-03-31 22:33:00,49.0,34.0,29.74,WNW,294,18.0,26.0,57,0.00,,,0.00,,2013-04-01 02:33:00,
2013-03-31 22:42:00,49.0,34.0,29.74,WNW,294,18.0,26.0,57,0.00,,,0.00,,2013-04-01 02:42:00,
2013-03-31 22:53:00,47.0,35.0,29.76,NNW,336,15.0,24.0,63,0.00,,,0.00,,2013-04-01 02:53:00,
2013-03-31 23:03:00,44.0,34.0,29.77,NW,319,16.0,26.0,69,0.00,,,0.00,,2013-04-01 03:03:00,
2013-03-31 23:12:00,44.0,34.0,29.77,NW,319,16.0,26.0,69,0.00,,,0.00,,2013-04-01 03:12:00,
2013-03-31 23:23:00,43.0,34.0,29.78,NW,313,14.0,21.0,71,0.00,,,0.00,,2013-04-01 03:23:00,
2013-03-31 23:34:00,42.0,34.0,29.78,NNW,337,13.0,17.0,73,0.00,,,0.00,,2013-04-01 03:34:00,
2013-03-31 23:43:00,42.0,34.0,29.78,NNW,337,13.0,17.0,73,0.00,,,0.00,,2013-04-01 03:43:00,
2013-03-31 23:53:00,41.0,33.0,29.78,NNW,336,12.0,16.0,73,0.00,,,0.00,,2013-04-01 03:53:00,